sensor_id;sensor_type;location;lat;lon;timestamp;P1;durP1;ratioP1;P2;durP2;ratioP2
20110;SDS011;10216;42.658;23.248;2023-07-28T00:01:29;2.70;;;1.80;;
20110;SDS011;10216;42.658;23.248;2023-07-28T00:03:55;3.13;;;1.80;;
20110;SDS011;10216;42.658;23.248;2023-07-28T00:06:20;1.97;;;1.77;;
20110;SDS011;10216;42.658;23.248;2023-07-28T00:08:46;1.67;;;1.57;;
20110;SDS011;10216;42.658;23.248;2023-07-28T00:11:12;3.37;;;1.67;;
20110;SDS011;10216;42.658;23.248;2023-07-28T00:13:39;2.10;;;1.90;;
20110;SDS011;10216;42.658;23.248;2023-07-28T00:16:05;5.47;;;1.60;;
20110;SDS011;10216;42.658;23.248;2023-07-28T00:18:31;1.80;;;1.70;;
20110;SDS011;10216;42.658;23.248;2023-07-28T00:20:56;1.70;;;1.60;;
20110;SDS011;10216;42.658;23.248;2023-07-28T00:23:22;3.27;;;2.37;;
20110;SDS011;10216;42.658;23.248;2023-07-28T00:25:47;1.70;;;1.60;;
20110;SDS011;10216;42.658;23.248;2023-07-28T00:28:13;3.10;;;1.73;;
20110;SDS011;10216;42.658;23.248;2023-07-28T00:30:39;3.37;;;1.37;;
20110;SDS011;10216;42.658;23.248;2023-07-28T00:33:04;4.00;;;1.40;;
20110;SDS011;10216;42.658;23.248;2023-07-28T00:35:30;3.23;;;1.37;;
20110;SDS011;10216;42.658;23.248;2023-07-28T00:37:55;1.93;;;1.40;;
20110;SDS011;10216;42.658;23.248;2023-07-28T00:40:21;3.03;;;1.83;;
20110;SDS011;10216;42.658;23.248;2023-07-28T00:42:47;1.47;;;1.37;;
20110;SDS011;10216;42.658;23.248;2023-07-28T00:45:13;1.70;;;1.60;;
20110;SDS011;10216;42.658;23.248;2023-07-28T00:47:38;1.47;;;1.37;;
20110;SDS011;10216;42.658;23.248;2023-07-28T00:50:05;1.60;;;1.50;;
20110;SDS011;10216;42.658;23.248;2023-07-28T00:52:31;1.73;;;1.63;;
20110;SDS011;10216;42.658;23.248;2023-07-28T00:54:57;1.60;;;1.50;;
20110;SDS011;10216;42.658;23.248;2023-07-28T00:57:22;3.33;;;1.83;;
20110;SDS011;10216;42.658;23.248;2023-07-28T00:59:48;1.97;;;1.50;;
20110;SDS011;10216;42.658;23.248;2023-07-28T01:02:13;2.03;;;1.50;;
20110;SDS011;10216;42.658;23.248;2023-07-28T01:04:39;3.40;;;1.70;;
20110;SDS011;10216;42.658;23.248;2023-07-28T01:07:09;1.60;;;1.50;;
20110;SDS011;10216;42.658;23.248;2023-07-28T01:09:46;1.70;;;1.60;;
20110;SDS011;10216;42.658;23.248;2023-07-28T01:12:16;1.50;;;1.40;;
20110;SDS011;10216;42.658;23.248;2023-07-28T01:14:42;1.50;;;1.40;;
20110;SDS011;10216;42.658;23.248;2023-07-28T01:17:08;1.67;;;1.57;;
20110;SDS011;10216;42.658;23.248;2023-07-28T01:19:34;3.93;;;1.57;;
20110;SDS011;10216;42.658;23.248;2023-07-28T01:24:49;2.27;;;1.50;;
20110;SDS011;10216;42.658;23.248;2023-07-28T01:27:20;1.53;;;1.43;;
20110;SDS011;10216;42.658;23.248;2023-07-28T01:29:46;2.50;;;1.83;;
20110;SDS011;10216;42.658;23.248;2023-07-28T01:32:13;2.03;;;1.73;;
20110;SDS011;10216;42.658;23.248;2023-07-28T01:34:39;1.87;;;1.67;;
20110;SDS011;10216;42.658;23.248;2023-07-28T01:37:04;2.57;;;1.70;;
20110;SDS011;10216;42.658;23.248;2023-07-28T01:39:30;4.43;;;1.70;;
20110;SDS011;10216;42.658;23.248;2023-07-28T01:41:56;3.77;;;1.80;;
20110;SDS011;10216;42.658;23.248;2023-07-28T01:44:21;1.90;;;1.80;;
20110;SDS011;10216;42.658;23.248;2023-07-28T01:46:46;2.17;;;1.97;;
20110;SDS011;10216;42.658;23.248;2023-07-28T01:49:12;2.37;;;1.93;;
20110;SDS011;10216;42.658;23.248;2023-07-28T01:51:37;3.37;;;1.63;;
20110;SDS011;10216;42.658;23.248;2023-07-28T01:54:02;2.13;;;1.90;;
20110;SDS011;10216;42.658;23.248;2023-07-28T01:56:28;2.43;;;1.90;;
20110;SDS011;10216;42.658;23.248;2023-07-28T01:58:53;3.07;;;2.07;;
20110;SDS011;10216;42.658;23.248;2023-07-28T02:01:18;4.13;;;2.30;;
20110;SDS011;10216;42.658;23.248;2023-07-28T02:03:44;6.00;;;3.20;;
20110;SDS011;10216;42.658;23.248;2023-07-28T02:06:09;5.60;;;2.63;;
20110;SDS011;10216;42.658;23.248;2023-07-28T02:08:34;4.57;;;2.87;;
20110;SDS011;10216;42.658;23.248;2023-07-28T02:11:00;4.83;;;2.37;;
20110;SDS011;10216;42.658;23.248;2023-07-28T02:13:25;4.17;;;2.40;;
20110;SDS011;10216;42.658;23.248;2023-07-28T02:15:50;2.60;;;2.23;;
20110;SDS011;10216;42.658;23.248;2023-07-28T02:18:16;3.00;;;2.43;;
20110;SDS011;10216;42.658;23.248;2023-07-28T02:20:41;5.67;;;2.63;;
20110;SDS011;10216;42.658;23.248;2023-07-28T02:23:07;3.03;;;2.70;;
20110;SDS011;10216;42.658;23.248;2023-07-28T02:25:33;2.70;;;2.50;;
20110;SDS011;10216;42.658;23.248;2023-07-28T02:27:58;4.00;;;2.53;;
20110;SDS011;10216;42.658;23.248;2023-07-28T02:30:24;3.53;;;2.33;;
20110;SDS011;10216;42.658;23.248;2023-07-28T02:32:49;3.70;;;2.53;;
20110;SDS011;10216;42.658;23.248;2023-07-28T02:35:14;2.60;;;2.40;;
20110;SDS011;10216;42.658;23.248;2023-07-28T02:37:40;2.77;;;2.37;;
20110;SDS011;10216;42.658;23.248;2023-07-28T02:40:06;3.87;;;2.77;;
20110;SDS011;10216;42.658;23.248;2023-07-28T02:42:32;3.07;;;2.63;;
20110;SDS011;10216;42.658;23.248;2023-07-28T02:44:59;2.97;;;2.70;;
20110;SDS011;10216;42.658;23.248;2023-07-28T02:47:24;3.70;;;2.50;;
20110;SDS011;10216;42.658;23.248;2023-07-28T02:49:49;2.67;;;2.47;;
20110;SDS011;10216;42.658;23.248;2023-07-28T02:52:15;3.30;;;2.60;;
20110;SDS011;10216;42.658;23.248;2023-07-28T02:54:40;2.30;;;2.10;;
20110;SDS011;10216;42.658;23.248;2023-07-28T02:57:06;4.57;;;2.70;;
20110;SDS011;10216;42.658;23.248;2023-07-28T02:59:31;3.00;;;2.80;;
20110;SDS011;10216;42.658;23.248;2023-07-28T03:01:56;3.73;;;2.70;;
20110;SDS011;10216;42.658;23.248;2023-07-28T03:04:22;3.23;;;2.83;;
20110;SDS011;10216;42.658;23.248;2023-07-28T03:06:47;3.93;;;2.80;;
20110;SDS011;10216;42.658;23.248;2023-07-28T03:09:13;2.90;;;2.70;;
20110;SDS011;10216;42.658;23.248;2023-07-28T03:11:38;4.07;;;2.70;;
20110;SDS011;10216;42.658;23.248;2023-07-28T03:14:04;4.63;;;2.93;;
20110;SDS011;10216;42.658;23.248;2023-07-28T03:16:29;3.37;;;3.00;;
20110;SDS011;10216;42.658;23.248;2023-07-28T03:18:55;3.37;;;3.03;;
20110;SDS011;10216;42.658;23.248;2023-07-28T03:21:20;2.93;;;2.73;;
20110;SDS011;10216;42.658;23.248;2023-07-28T03:23:45;4.20;;;3.30;;
20110;SDS011;10216;42.658;23.248;2023-07-28T03:26:11;3.40;;;3.10;;
20110;SDS011;10216;42.658;23.248;2023-07-28T03:28:36;3.10;;;2.80;;
20110;SDS011;10216;42.658;23.248;2023-07-28T03:31:01;3.40;;;3.10;;
20110;SDS011;10216;42.658;23.248;2023-07-28T03:33:27;4.60;;;3.20;;
20110;SDS011;10216;42.658;23.248;2023-07-28T03:35:52;3.00;;;2.80;;
20110;SDS011;10216;42.658;23.248;2023-07-28T03:38:17;3.03;;;2.67;;
20110;SDS011;10216;42.658;23.248;2023-07-28T03:40:44;3.50;;;2.70;;
20110;SDS011;10216;42.658;23.248;2023-07-28T03:43:09;3.10;;;2.90;;
20110;SDS011;10216;42.658;23.248;2023-07-28T03:45:35;4.20;;;2.73;;
20110;SDS011;10216;42.658;23.248;2023-07-28T03:48:01;2.93;;;2.73;;
20110;SDS011;10216;42.658;23.248;2023-07-28T03:50:26;3.10;;;2.80;;
20110;SDS011;10216;42.658;23.248;2023-07-28T03:52:52;3.60;;;2.70;;
20110;SDS011;10216;42.658;23.248;2023-07-28T03:55:18;3.40;;;2.63;;
20110;SDS011;10216;42.658;23.248;2023-07-28T03:57:44;3.00;;;2.80;;
20110;SDS011;10216;42.658;23.248;2023-07-28T04:00:09;4.20;;;2.70;;
20110;SDS011;10216;42.658;23.248;2023-07-28T04:02:36;3.33;;;2.57;;
20110;SDS011;10216;42.658;23.248;2023-07-28T04:05:01;3.83;;;2.93;;
20110;SDS011;10216;42.658;23.248;2023-07-28T04:07:26;3.43;;;3.13;;
20110;SDS011;10216;42.658;23.248;2023-07-28T04:09:52;3.17;;;2.93;;
20110;SDS011;10216;42.658;23.248;2023-07-28T04:12:17;3.50;;;3.20;;
20110;SDS011;10216;42.658;23.248;2023-07-28T04:14:42;9.70;;;3.70;;
20110;SDS011;10216;42.658;23.248;2023-07-28T04:17:08;4.27;;;3.90;;
20110;SDS011;10216;42.658;23.248;2023-07-28T04:19:33;5.67;;;3.73;;
20110;SDS011;10216;42.658;23.248;2023-07-28T04:21:59;3.77;;;3.37;;
20110;SDS011;10216;42.658;23.248;2023-07-28T04:24:25;3.50;;;3.20;;
20110;SDS011;10216;42.658;23.248;2023-07-28T04:26:51;5.27;;;3.63;;
20110;SDS011;10216;42.658;23.248;2023-07-28T04:29:16;6.07;;;3.63;;
20110;SDS011;10216;42.658;23.248;2023-07-28T04:31:42;6.77;;;3.93;;
20110;SDS011;10216;42.658;23.248;2023-07-28T04:34:07;4.43;;;4.03;;
20110;SDS011;10216;42.658;23.248;2023-07-28T04:36:33;7.10;;;4.20;;
20110;SDS011;10216;42.658;23.248;2023-07-28T04:38:58;3.97;;;3.60;;
20110;SDS011;10216;42.658;23.248;2023-07-28T04:41:23;4.30;;;3.90;;
20110;SDS011;10216;42.658;23.248;2023-07-28T04:43:49;6.87;;;4.20;;
20110;SDS011;10216;42.658;23.248;2023-07-28T04:46:15;5.10;;;3.80;;
20110;SDS011;10216;42.658;23.248;2023-07-28T04:48:40;4.00;;;3.50;;
20110;SDS011;10216;42.658;23.248;2023-07-28T04:51:05;4.40;;;4.00;;
20110;SDS011;10216;42.658;23.248;2023-07-28T04:53:31;5.77;;;3.90;;
20110;SDS011;10216;42.658;23.248;2023-07-28T04:55:56;5.77;;;3.60;;
20110;SDS011;10216;42.658;23.248;2023-07-28T04:58:21;4.73;;;3.60;;
20110;SDS011;10216;42.658;23.248;2023-07-28T05:00:47;8.13;;;3.60;;
20110;SDS011;10216;42.658;23.248;2023-07-28T05:03:12;4.60;;;3.80;;
20110;SDS011;10216;42.658;23.248;2023-07-28T05:05:38;7.53;;;3.90;;
20110;SDS011;10216;42.658;23.248;2023-07-28T05:08:03;6.90;;;4.10;;
20110;SDS011;10216;42.658;23.248;2023-07-28T05:10:29;5.23;;;3.67;;
20110;SDS011;10216;42.658;23.248;2023-07-28T05:12:54;4.03;;;3.60;;
20110;SDS011;10216;42.658;23.248;2023-07-28T05:15:21;4.50;;;4.10;;
20110;SDS011;10216;42.658;23.248;2023-07-28T05:17:46;4.00;;;3.60;;
20110;SDS011;10216;42.658;23.248;2023-07-28T05:20:11;7.50;;;4.00;;
20110;SDS011;10216;42.658;23.248;2023-07-28T05:22:37;4.60;;;3.50;;
20110;SDS011;10216;42.658;23.248;2023-07-28T05:25:02;3.63;;;3.00;;
20110;SDS011;10216;42.658;23.248;2023-07-28T05:27:28;6.53;;;3.20;;
20110;SDS011;10216;42.658;23.248;2023-07-28T05:29:53;4.63;;;3.20;;
20110;SDS011;10216;42.658;23.248;2023-07-28T05:32:18;7.47;;;3.23;;
20110;SDS011;10216;42.658;23.248;2023-07-28T05:34:44;6.27;;;4.03;;
20110;SDS011;10216;42.658;23.248;2023-07-28T05:37:09;9.07;;;4.13;;
20110;SDS011;10216;42.658;23.248;2023-07-28T05:39:35;11.27;;;4.63;;
20110;SDS011;10216;42.658;23.248;2023-07-28T05:42:01;6.80;;;3.80;;
20110;SDS011;10216;42.658;23.248;2023-07-28T05:44:26;7.37;;;3.57;;
20110;SDS011;10216;42.658;23.248;2023-07-28T05:46:51;8.20;;;4.10;;
20110;SDS011;10216;42.658;23.248;2023-07-28T05:49:17;6.43;;;3.37;;
20110;SDS011;10216;42.658;23.248;2023-07-28T05:51:42;4.03;;;2.90;;
20110;SDS011;10216;42.658;23.248;2023-07-28T05:54:08;5.33;;;3.50;;
20110;SDS011;10216;42.658;23.248;2023-07-28T05:56:33;7.43;;;3.33;;
20110;SDS011;10216;42.658;23.248;2023-07-28T05:58:59;5.87;;;3.00;;
20110;SDS011;10216;42.658;23.248;2023-07-28T06:01:24;6.27;;;3.27;;
20110;SDS011;10216;42.658;23.248;2023-07-28T06:03:52;7.53;;;3.27;;
20110;SDS011;10216;42.658;23.248;2023-07-28T06:06:20;7.40;;;3.13;;
20110;SDS011;10216;42.658;23.248;2023-07-28T06:08:46;5.87;;;3.50;;
20110;SDS011;10216;42.658;23.248;2023-07-28T06:11:11;6.77;;;3.10;;
20110;SDS011;10216;42.658;23.248;2023-07-28T06:13:36;5.30;;;3.60;;
20110;SDS011;10216;42.658;23.248;2023-07-28T06:16:02;7.40;;;3.60;;
20110;SDS011;10216;42.658;23.248;2023-07-28T06:18:27;6.67;;;3.47;;
20110;SDS011;10216;42.658;23.248;2023-07-28T06:20:53;8.60;;;3.70;;
20110;SDS011;10216;42.658;23.248;2023-07-28T06:23:18;4.37;;;3.40;;
20110;SDS011;10216;42.658;23.248;2023-07-28T06:25:43;6.73;;;3.37;;
20110;SDS011;10216;42.658;23.248;2023-07-28T06:28:10;6.07;;;3.53;;
20110;SDS011;10216;42.658;23.248;2023-07-28T06:30:37;5.03;;;3.07;;
20110;SDS011;10216;42.658;23.248;2023-07-28T06:33:03;6.00;;;3.43;;
20110;SDS011;10216;42.658;23.248;2023-07-28T06:35:31;6.80;;;3.50;;
20110;SDS011;10216;42.658;23.248;2023-07-28T06:37:56;5.23;;;3.00;;
20110;SDS011;10216;42.658;23.248;2023-07-28T06:40:22;9.27;;;3.40;;
20110;SDS011;10216;42.658;23.248;2023-07-28T06:42:47;6.93;;;2.73;;
20110;SDS011;10216;42.658;23.248;2023-07-28T06:45:13;6.07;;;2.77;;
20110;SDS011;10216;42.658;23.248;2023-07-28T06:47:39;4.00;;;2.77;;
20110;SDS011;10216;42.658;23.248;2023-07-28T06:50:04;6.37;;;3.20;;
20110;SDS011;10216;42.658;23.248;2023-07-28T06:52:30;5.73;;;2.80;;
20110;SDS011;10216;42.658;23.248;2023-07-28T06:54:56;5.87;;;2.77;;
20110;SDS011;10216;42.658;23.248;2023-07-28T06:57:21;9.83;;;3.10;;
20110;SDS011;10216;42.658;23.248;2023-07-28T06:59:47;5.40;;;2.67;;
20110;SDS011;10216;42.658;23.248;2023-07-28T07:02:13;7.07;;;3.30;;
20110;SDS011;10216;42.658;23.248;2023-07-28T07:04:39;13.33;;;3.20;;
20110;SDS011;10216;42.658;23.248;2023-07-28T07:07:04;9.33;;;3.20;;
20110;SDS011;10216;42.658;23.248;2023-07-28T07:09:30;6.57;;;3.53;;
20110;SDS011;10216;42.658;23.248;2023-07-28T07:11:55;9.70;;;3.53;;
20110;SDS011;10216;42.658;23.248;2023-07-28T07:14:21;7.10;;;3.00;;
20110;SDS011;10216;42.658;23.248;2023-07-28T07:16:46;9.00;;;2.90;;
20110;SDS011;10216;42.658;23.248;2023-07-28T07:19:12;6.50;;;2.60;;
20110;SDS011;10216;42.658;23.248;2023-07-28T07:21:38;7.20;;;3.20;;
20110;SDS011;10216;42.658;23.248;2023-07-28T07:24:03;5.63;;;2.63;;
20110;SDS011;10216;42.658;23.248;2023-07-28T07:26:29;7.73;;;2.90;;
20110;SDS011;10216;42.658;23.248;2023-07-28T07:28:56;2.93;;;2.63;;
20110;SDS011;10216;42.658;23.248;2023-07-28T07:31:22;3.73;;;2.53;;
20110;SDS011;10216;42.658;23.248;2023-07-28T07:33:48;4.27;;;2.60;;
20110;SDS011;10216;42.658;23.248;2023-07-28T07:36:14;5.43;;;2.90;;
20110;SDS011;10216;42.658;23.248;2023-07-28T07:38:41;4.07;;;3.10;;
20110;SDS011;10216;42.658;23.248;2023-07-28T07:41:07;6.43;;;3.00;;
20110;SDS011;10216;42.658;23.248;2023-07-28T07:43:33;5.33;;;2.67;;
20110;SDS011;10216;42.658;23.248;2023-07-28T07:45:59;5.00;;;2.60;;
20110;SDS011;10216;42.658;23.248;2023-07-28T07:48:24;5.60;;;2.67;;
20110;SDS011;10216;42.658;23.248;2023-07-28T07:50:50;3.97;;;2.57;;
20110;SDS011;10216;42.658;23.248;2023-07-28T07:53:17;3.40;;;2.50;;
20110;SDS011;10216;42.658;23.248;2023-07-28T07:55:42;6.03;;;2.17;;
20110;SDS011;10216;42.658;23.248;2023-07-28T07:58:08;7.67;;;2.33;;
20110;SDS011;10216;42.658;23.248;2023-07-28T08:00:33;6.83;;;2.47;;
20110;SDS011;10216;42.658;23.248;2023-07-28T08:02:59;5.17;;;2.43;;
20110;SDS011;10216;42.658;23.248;2023-07-28T08:05:24;7.10;;;2.63;;
20110;SDS011;10216;42.658;23.248;2023-07-28T08:07:50;6.40;;;2.63;;
20110;SDS011;10216;42.658;23.248;2023-07-28T08:10:15;5.87;;;2.60;;
20110;SDS011;10216;42.658;23.248;2023-07-28T08:12:42;5.13;;;2.20;;
20110;SDS011;10216;42.658;23.248;2023-07-28T08:15:09;7.47;;;2.73;;
20110;SDS011;10216;42.658;23.248;2023-07-28T08:17:35;6.23;;;2.67;;
20110;SDS011;10216;42.658;23.248;2023-07-28T08:20:00;7.50;;;2.83;;
20110;SDS011;10216;42.658;23.248;2023-07-28T08:22:26;5.13;;;2.63;;
20110;SDS011;10216;42.658;23.248;2023-07-28T08:24:52;7.80;;;2.70;;
20110;SDS011;10216;42.658;23.248;2023-07-28T08:27:17;4.87;;;2.30;;
20110;SDS011;10216;42.658;23.248;2023-07-28T08:29:42;6.10;;;2.50;;
20110;SDS011;10216;42.658;23.248;2023-07-28T08:32:08;7.07;;;2.55;;
20110;SDS011;10216;42.658;23.248;2023-07-28T08:34:34;5.65;;;2.30;;
20110;SDS011;10216;42.658;23.248;2023-07-28T08:36:59;7.65;;;3.30;;
20110;SDS011;10216;42.658;23.248;2023-07-28T08:39:24;5.68;;;2.30;;
20110;SDS011;10216;42.658;23.248;2023-07-28T08:41:59;3.17;;;2.17;;
20110;SDS011;10216;42.658;23.248;2023-07-28T08:44:26;4.63;;;2.60;;
20110;SDS011;10216;42.658;23.248;2023-07-28T08:46:52;7.47;;;2.83;;
20110;SDS011;10216;42.658;23.248;2023-07-28T08:49:17;5.50;;;2.53;;
20110;SDS011;10216;42.658;23.248;2023-07-28T08:51:48;8.30;;;2.55;;
20110;SDS011;10216;42.658;23.248;2023-07-28T08:54:14;3.25;;;2.42;;
20110;SDS011;10216;42.658;23.248;2023-07-28T08:56:41;4.57;;;2.30;;
20110;SDS011;10216;42.658;23.248;2023-07-28T08:59:08;8.23;;;2.28;;
20110;SDS011;10216;42.658;23.248;2023-07-28T09:01:38;4.95;;;2.30;;
20110;SDS011;10216;42.658;23.248;2023-07-28T09:04:08;6.53;;;2.25;;
20110;SDS011;10216;42.658;23.248;2023-07-28T09:06:35;5.00;;;2.53;;
20110;SDS011;10216;42.658;23.248;2023-07-28T09:09:01;6.35;;;2.38;;
20110;SDS011;10216;42.658;23.248;2023-07-28T09:11:26;4.43;;;2.50;;
20110;SDS011;10216;42.658;23.248;2023-07-28T09:13:53;3.85;;;2.53;;
20110;SDS011;10216;42.658;23.248;2023-07-28T09:16:20;12.50;;;2.58;;
20110;SDS011;10216;42.658;23.248;2023-07-28T09:18:47;3.90;;;2.38;;
20110;SDS011;10216;42.658;23.248;2023-07-28T09:21:19;3.08;;;2.10;;
20110;SDS011;10216;42.658;23.248;2023-07-28T09:23:46;5.28;;;2.60;;
20110;SDS011;10216;42.658;23.248;2023-07-28T09:26:12;4.72;;;2.50;;
20110;SDS011;10216;42.658;23.248;2023-07-28T09:28:41;5.13;;;2.40;;
20110;SDS011;10216;42.658;23.248;2023-07-28T09:31:07;6.88;;;2.35;;
20110;SDS011;10216;42.658;23.248;2023-07-28T09:33:33;4.38;;;2.38;;
20110;SDS011;10216;42.658;23.248;2023-07-28T09:36:10;5.60;;;2.35;;
20110;SDS011;10216;42.658;23.248;2023-07-28T09:38:37;4.95;;;2.72;;
20110;SDS011;10216;42.658;23.248;2023-07-28T09:41:05;5.60;;;2.83;;
20110;SDS011;10216;42.658;23.248;2023-07-28T09:43:34;8.32;;;2.75;;
20110;SDS011;10216;42.658;23.248;2023-07-28T09:46:00;4.68;;;2.90;;
20110;SDS011;10216;42.658;23.248;2023-07-28T09:48:29;4.70;;;2.35;;
20110;SDS011;10216;42.658;23.248;2023-07-28T09:50:56;2.92;;;2.40;;
20110;SDS011;10216;42.658;23.248;2023-07-28T09:53:24;6.25;;;2.72;;
20110;SDS011;10216;42.658;23.248;2023-07-28T09:55:53;3.85;;;2.40;;
20110;SDS011;10216;42.658;23.248;2023-07-28T09:58:20;5.90;;;2.40;;
20110;SDS011;10216;42.658;23.248;2023-07-28T10:00:49;4.45;;;2.53;;
20110;SDS011;10216;42.658;23.248;2023-07-28T10:03:16;4.15;;;2.30;;
20110;SDS011;10216;42.658;23.248;2023-07-28T10:05:42;2.22;;;1.75;;
20110;SDS011;10216;42.658;23.248;2023-07-28T10:08:08;3.75;;;1.55;;
20110;SDS011;10216;42.658;23.248;2023-07-28T10:10:34;5.07;;;2.17;;
20110;SDS011;10216;42.658;23.248;2023-07-28T10:13:00;5.63;;;2.10;;
20110;SDS011;10216;42.658;23.248;2023-07-28T10:15:29;2.17;;;1.63;;
20110;SDS011;10216;42.658;23.248;2023-07-28T10:17:57;5.38;;;2.70;;
20110;SDS011;10216;42.658;23.248;2023-07-28T10:23:14;2.40;;;1.70;;
20110;SDS011;10216;42.658;23.248;2023-07-28T10:25:42;2.47;;;1.45;;
20110;SDS011;10216;42.658;23.248;2023-07-28T10:28:28;2.90;;;1.70;;
20110;SDS011;10216;42.658;23.248;2023-07-28T10:31:04;3.88;;;1.70;;
20110;SDS011;10216;42.658;23.248;2023-07-28T10:33:32;3.75;;;1.70;;
20110;SDS011;10216;42.658;23.248;2023-07-28T10:35:59;5.40;;;1.77;;
20110;SDS011;10216;42.658;23.248;2023-07-28T10:38:36;4.70;;;1.73;;
20110;SDS011;10216;42.658;23.248;2023-07-28T10:41:05;3.15;;;1.80;;
20110;SDS011;10216;42.658;23.248;2023-07-28T10:43:35;7.30;;;1.88;;
20110;SDS011;10216;42.658;23.248;2023-07-28T10:46:01;3.55;;;2.00;;
20110;SDS011;10216;42.658;23.248;2023-07-28T10:48:26;4.40;;;2.30;;
20110;SDS011;10216;42.658;23.248;2023-07-28T10:50:52;2.08;;;1.88;;
20110;SDS011;10216;42.658;23.248;2023-07-28T10:53:18;3.17;;;1.75;;
20110;SDS011;10216;42.658;23.248;2023-07-28T10:55:44;2.40;;;1.75;;
20110;SDS011;10216;42.658;23.248;2023-07-28T10:58:10;32.70;;;3.25;;
20110;SDS011;10216;42.658;23.248;2023-07-28T11:00:35;4.95;;;1.77;;
20110;SDS011;10216;42.658;23.248;2023-07-28T11:03:01;3.10;;;1.60;;
20110;SDS011;10216;42.658;23.248;2023-07-28T11:05:28;1.95;;;1.63;;
20110;SDS011;10216;42.658;23.248;2023-07-28T11:07:58;2.30;;;1.85;;
20110;SDS011;10216;42.658;23.248;2023-07-28T11:10:25;2.15;;;1.90;;
20110;SDS011;10216;42.658;23.248;2023-07-28T11:12:53;4.38;;;1.77;;
20110;SDS011;10216;42.658;23.248;2023-07-28T11:15:19;1.90;;;1.80;;
20110;SDS011;10216;42.658;23.248;2023-07-28T11:17:48;3.67;;;1.60;;
20110;SDS011;10216;42.658;23.248;2023-07-28T11:20:18;2.63;;;1.48;;
20110;SDS011;10216;42.658;23.248;2023-07-28T11:22:45;6.65;;;1.60;;
20110;SDS011;10216;42.658;23.248;2023-07-28T11:25:11;2.30;;;1.98;;
20110;SDS011;10216;42.658;23.248;2023-07-28T11:27:37;2.17;;;1.98;;
20110;SDS011;10216;42.658;23.248;2023-07-28T11:30:04;1.80;;;1.70;;
20110;SDS011;10216;42.658;23.248;2023-07-28T11:32:34;6.50;;;2.28;;
20110;SDS011;10216;42.658;23.248;2023-07-28T11:35:06;4.63;;;2.00;;
20110;SDS011;10216;42.658;23.248;2023-07-28T11:37:34;5.15;;;1.90;;
20110;SDS011;10216;42.658;23.248;2023-07-28T11:40:03;7.15;;;2.22;;
20110;SDS011;10216;42.658;23.248;2023-07-28T11:42:36;3.10;;;1.83;;
20110;SDS011;10216;42.658;23.248;2023-07-28T11:45:03;6.93;;;2.10;;
20110;SDS011;10216;42.658;23.248;2023-07-28T11:47:30;2.78;;;1.88;;
20110;SDS011;10216;42.658;23.248;2023-07-28T11:49:56;3.47;;;2.10;;
20110;SDS011;10216;42.658;23.248;2023-07-28T11:52:23;8.23;;;1.90;;
20110;SDS011;10216;42.658;23.248;2023-07-28T11:55:01;2.55;;;1.70;;
20110;SDS011;10216;42.658;23.248;2023-07-28T11:57:29;2.03;;;1.90;;
20110;SDS011;10216;42.658;23.248;2023-07-28T11:59:58;4.25;;;2.00;;
20110;SDS011;10216;42.658;23.248;2023-07-28T12:02:27;4.55;;;1.73;;
20110;SDS011;10216;42.658;23.248;2023-07-28T12:04:54;4.38;;;2.10;;
20110;SDS011;10216;42.658;23.248;2023-07-28T12:07:29;5.07;;;2.00;;
20110;SDS011;10216;42.658;23.248;2023-07-28T12:09:56;2.05;;;1.90;;
20110;SDS011;10216;42.658;23.248;2023-07-28T12:12:28;3.47;;;1.98;;
20110;SDS011;10216;42.658;23.248;2023-07-28T12:14:55;4.20;;;2.22;;
20110;SDS011;10216;42.658;23.248;2023-07-28T12:17:24;5.10;;;2.38;;
20110;SDS011;10216;42.658;23.248;2023-07-28T12:19:59;5.35;;;2.08;;
20110;SDS011;10216;42.658;23.248;2023-07-28T12:22:36;2.25;;;1.73;;
20110;SDS011;10216;42.658;23.248;2023-07-28T12:25:02;2.00;;;1.90;;
20110;SDS011;10216;42.658;23.248;2023-07-28T12:27:29;3.70;;;2.15;;
20110;SDS011;10216;42.658;23.248;2023-07-28T12:29:55;3.45;;;2.00;;
20110;SDS011;10216;42.658;23.248;2023-07-28T12:32:20;2.30;;;2.10;;
20110;SDS011;10216;42.658;23.248;2023-07-28T12:34:46;4.82;;;2.15;;
20110;SDS011;10216;42.658;23.248;2023-07-28T12:37:11;3.10;;;2.13;;
20110;SDS011;10216;42.658;23.248;2023-07-28T12:39:37;3.58;;;2.03;;
20110;SDS011;10216;42.658;23.248;2023-07-28T12:42:06;2.25;;;2.05;;
20110;SDS011;10216;42.658;23.248;2023-07-28T12:44:32;2.10;;;1.90;;
20110;SDS011;10216;42.658;23.248;2023-07-28T12:46:58;2.35;;;2.15;;
20110;SDS011;10216;42.658;23.248;2023-07-28T12:49:23;2.17;;;1.90;;
20110;SDS011;10216;42.658;23.248;2023-07-28T12:51:49;3.60;;;1.88;;
20110;SDS011;10216;42.658;23.248;2023-07-28T12:54:14;1.95;;;1.80;;
20110;SDS011;10216;42.658;23.248;2023-07-28T12:56:40;2.95;;;1.85;;
20110;SDS011;10216;42.658;23.248;2023-07-28T12:59:05;3.05;;;2.00;;
20110;SDS011;10216;42.658;23.248;2023-07-28T13:01:31;2.42;;;1.77;;
20110;SDS011;10216;42.658;23.248;2023-07-28T13:03:56;2.20;;;2.00;;
20110;SDS011;10216;42.658;23.248;2023-07-28T13:06:21;2.08;;;1.95;;
20110;SDS011;10216;42.658;23.248;2023-07-28T13:08:47;4.75;;;1.73;;
20110;SDS011;10216;42.658;23.248;2023-07-28T13:11:13;3.65;;;1.98;;
20110;SDS011;10216;42.658;23.248;2023-07-28T13:13:39;1.98;;;1.88;;
20110;SDS011;10216;42.658;23.248;2023-07-28T13:16:06;2.78;;;1.77;;
20110;SDS011;10216;42.658;23.248;2023-07-28T13:18:31;1.80;;;1.70;;
20110;SDS011;10216;42.658;23.248;2023-07-28T13:20:57;2.55;;;1.98;;
20110;SDS011;10216;42.658;23.248;2023-07-28T13:23:23;2.17;;;1.98;;
20110;SDS011;10216;42.658;23.248;2023-07-28T13:25:49;1.85;;;1.50;;
20110;SDS011;10216;42.658;23.248;2023-07-28T13:28:15;2.75;;;1.75;;
20110;SDS011;10216;42.658;23.248;2023-07-28T13:30:40;2.00;;;1.65;;
20110;SDS011;10216;42.658;23.248;2023-07-28T13:33:06;1.95;;;1.73;;
20110;SDS011;10216;42.658;23.248;2023-07-28T13:35:31;4.53;;;2.08;;
20110;SDS011;10216;42.658;23.248;2023-07-28T13:37:57;5.30;;;2.00;;
20110;SDS011;10216;42.658;23.248;2023-07-28T13:40:22;2.65;;;1.98;;
20110;SDS011;10216;42.658;23.248;2023-07-28T13:42:48;3.42;;;1.90;;
20110;SDS011;10216;42.658;23.248;2023-07-28T13:45:13;4.05;;;2.10;;
20110;SDS011;10216;42.658;23.248;2023-07-28T13:47:39;2.10;;;1.85;;
20110;SDS011;10216;42.658;23.248;2023-07-28T13:50:04;2.05;;;1.95;;
20110;SDS011;10216;42.658;23.248;2023-07-28T13:52:31;3.30;;;2.10;;
20110;SDS011;10216;42.658;23.248;2023-07-28T13:54:56;3.00;;;1.95;;
20110;SDS011;10216;42.658;23.248;2023-07-28T13:57:22;1.95;;;1.80;;
20110;SDS011;10216;42.658;23.248;2023-07-28T13:59:47;3.80;;;2.08;;
20110;SDS011;10216;42.658;23.248;2023-07-28T14:02:13;2.33;;;1.80;;
20110;SDS011;10216;42.658;23.248;2023-07-28T14:04:38;2.75;;;1.75;;
20110;SDS011;10216;42.658;23.248;2023-07-28T14:07:04;3.42;;;1.80;;
20110;SDS011;10216;42.658;23.248;2023-07-28T14:09:29;2.65;;;1.92;;
20110;SDS011;10216;42.658;23.248;2023-07-28T14:11:54;2.55;;;1.77;;
20110;SDS011;10216;42.658;23.248;2023-07-28T14:14:20;2.20;;;2.00;;
20110;SDS011;10216;42.658;23.248;2023-07-28T14:16:45;1.90;;;1.80;;
20110;SDS011;10216;42.658;23.248;2023-07-28T14:19:11;4.35;;;2.03;;
20110;SDS011;10216;42.658;23.248;2023-07-28T14:21:37;2.80;;;1.85;;
20110;SDS011;10216;42.658;23.248;2023-07-28T14:24:04;2.90;;;2.00;;
20110;SDS011;10216;42.658;23.248;2023-07-28T14:26:30;1.98;;;1.80;;
20110;SDS011;10216;42.658;23.248;2023-07-28T14:28:55;2.17;;;1.88;;
20110;SDS011;10216;42.658;23.248;2023-07-28T14:31:21;2.25;;;2.05;;
20110;SDS011;10216;42.658;23.248;2023-07-28T14:33:46;3.53;;;1.90;;